Time;durP1;ratioP1;P1;durP2;ratioP2;P2;SDS_P1;SDS_P2;PMS_P1;PMS_P2;Temp;Humidity;BMP_temperature;BMP_pressure;BME280_temperature;BME280_humidity;BME280_pressure;Samples;Min_cycle;Max_cycle;Signal;HPM_P1;HPM_P2
2023/04/19 00:03:38;;;;;;;5.28;4.78;;;;;;;12.62;64.63;100964.69;10369217;28;20464;-65
2023/04/19 00:08:41;;;;;;;5.05;4.55;;;;;;;12.53;64.55;100952.06;10369015;28;20057;-66
2023/04/19 00:13:42;;;;;;;5.65;4.55;;;;;;;12.48;64.94;100947.09;10369920;28;20057;-64
2023/04/19 00:18:45;;;;;;;5.32;4.05;;;;;;;12.55;64.74;100952.81;10368926;28;20053;-65
2023/04/19 00:23:46;;;;;;;4.72;4.32;;;;;;;12.66;64.80;100970.66;10367712;28;20561;-66
2023/04/19 00:28:48;;;;;;;4.78;4.32;;;;;;;12.66;64.90;100968.84;10364704;28;20049;-65
2023/04/19 00:33:49;;;;;;;4.57;4.18;;;;;;;12.55;65.15;100953.66;10363171;28;20048;-64
2023/04/19 00:38:51;;;;;;;5.43;4.93;;;;;;;12.64;65.52;100968.13;10372667;28;20055;-67
2023/04/19 00:43:52;;;;;;;4.60;4.20;;;;;;;12.61;65.64;100967.47;10380344;28;20464;-67
2023/04/19 00:48:54;;;;;;;5.40;4.90;;;;;;;12.59;65.43;100956.91;10367291;28;20149;-67
2023/04/19 00:53:56;;;;;;;6.68;5.35;;;;;;;12.58;65.59;100951.69;10362943;28;20596;-67
2023/04/19 00:58:58;;;;;;;6.45;5.63;;;;;;;12.58;65.79;100951.69;10366268;28;20144;-63
2023/04/19 01:04:00;;;;;;;6.43;5.53;;;;;;;12.53;66.12;100944.88;10367119;28;20092;-63
2023/04/19 01:09:03;;;;;;;5.85;5.28;;;;;;;12.54;66.37;100946.59;10367580;28;20045;-66
2023/04/19 01:14:04;;;;;;;6.20;5.60;;;;;;;12.44;66.81;100920.75;10363984;28;20914;-65
2023/04/19 01:19:06;;;;;;;6.22;5.70;;;;;;;12.48;66.91;100938.22;10364268;28;20053;-66
2023/04/19 01:24:07;;;;;;;6.57;5.97;;;;;;;12.47;66.89;100923.16;10365565;28;20077;-66
2023/04/19 01:29:09;;;;;;;7.00;6.35;;;;;;;12.57;66.75;100936.66;10356202;28;20743;-67
2023/04/19 01:34:10;;;;;;;7.93;6.65;;;;;;;12.56;66.67;100933.13;10366711;28;20057;-66
2023/04/19 01:39:11;;;;;;;6.82;6.18;;;;;;;12.52;66.98;100921.84;10368374;28;20182;-67
2023/04/19 01:44:13;;;;;;;7.03;6.43;;;;;;;12.35;67.68;100914.28;10367976;28;20180;-65
2023/04/19 01:49:15;;;;;;;7.65;7.03;;;;;;;12.36;67.48;100914.16;10369341;28;20050;-64
2023/04/19 01:54:16;;;;;;;8.00;7.30;;;;;;;12.32;67.45;100907.34;10368748;28;20166;-66
2023/04/19 01:59:18;;;;;;;8.00;7.20;;;;;;;12.43;67.45;100906.56;10372824;28;20053;-66
2023/04/19 02:04:20;;;;;;;9.57;8.68;;;;;;;12.42;67.50;100904.84;10390930;28;20828;-66
2023/04/19 02:09:22;;;;;;;8.50;7.70;;;;;;;12.37;67.71;100902.53;10378885;28;20072;-67
2023/04/19 02:14:23;;;;;;;8.15;7.35;;;;;;;12.18;67.94;100876.41;10365238;28;20046;-67
2023/04/19 02:19:24;;;;;;;9.43;8.23;;;;;;;12.22;68.16;100870.81;10367056;28;20053;-67
2023/04/19 02:24:26;;;;;;;8.82;8.02;;;;;;;12.15;68.42;100867.78;10364644;28;20079;-66
2023/04/19 02:29:27;;;;;;;9.23;8.32;;;;;;;12.26;68.48;100889.16;10365950;28;20060;-67
2023/04/19 02:34:29;;;;;;;8.43;7.55;;;;;;;12.16;68.86;100888.16;10365534;28;20053;-64
2023/04/19 02:39:31;;;;;;;9.43;8.45;;;;;;;12.13;69.05;100883.94;10365430;28;20910;-63
2023/04/19 02:44:32;;;;;;;10.30;9.30;;;;;;;12.11;69.53;100895.69;10363639;28;20045;-65
2023/04/19 02:49:36;;;;;;;9.50;8.55;;;;;;;12.01;69.58;100875.03;10352681;28;20041;-66
2023/04/19 02:54:38;;;;;;;10.52;9.52;;;;;;;12.06;69.82;100877.34;10364066;28;20750;-66
2023/04/19 02:59:39;;;;;;;9.35;8.35;;;;;;;12.00;70.24;100873.34;10364322;28;20055;-66
2023/04/19 03:04:42;;;;;;;10.88;9.60;;;;;;;11.83;70.49;100855.94;10383949;28;20124;-66
2023/04/19 03:09:43;;;;;;;10.50;9.48;;;;;;;11.83;70.96;100861.25;10362109;28;20088;-67
2023/04/19 03:14:45;;;;;;;11.02;9.93;;;;;;;11.89;71.26;100870.63;10363750;28;20049;-67
2023/04/19 03:19:46;;;;;;;11.43;10.32;;;;;;;11.89;71.22;100851.94;10361534;28;20128;-65
2023/04/19 03:24:47;;;;;;;10.93;9.88;;;;;;;11.87;71.38;100843.19;10361552;28;20049;-66
2023/04/19 03:29:49;;;;;;;11.30;10.18;;;;;;;11.94;71.73;100857.81;10360095;28;20120;-65
2023/04/19 03:34:50;;;;;;;11.60;9.95;;;;;;;11.96;71.64;100853.19;10364169;28;20508;-66
2023/04/19 03:39:51;;;;;;;12.00;10.73;;;;;;;11.84;72.09;100832.75;10364105;28;20053;-65
2023/04/19 03:44:53;;;;;;;12.35;10.70;;;;;;;11.84;72.21;100825.63;10366101;28;20459;-66
2023/04/19 03:49:54;;;;;;;10.90;9.80;;;;;;;11.98;72.21;100837.06;10362626;28;20060;-66
2023/04/19 03:54:56;;;;;;;11.52;10.43;;;;;;;11.96;72.69;100833.66;10363234;28;20720;-66
2023/04/19 03:59:58;;;;;;;11.10;10.10;;;;;;;11.92;72.71;100830.38;10361960;28;20053;-67
2023/04/19 04:05:00;;;;;;;15.00;11.43;;;;;;;12.00;72.95;100837.81;10361458;28;20709;-66
2023/04/19 04:10:01;;;;;;;10.90;9.77;;;;;;;12.01;73.17;100845.69;10364234;28;20064;-67
2023/04/19 04:15:04;;;;;;;11.10;10.02;;;;;;;11.95;73.13;100824.81;10362660;28;20072;-66
2023/04/19 04:20:07;;;;;;;9.10;8.20;;;;;;;12.05;73.18;100837.44;10363796;28;20096;-66
2023/04/19 04:25:09;;;;;;;11.00;9.43;;;;;;;12.03;73.35;100837.56;10361721;28;20174;-66
2023/04/19 04:30:11;;;;;;;9.95;8.88;;;;;;;12.02;73.50;100836.72;10363372;28;20057;-66
2023/04/19 04:35:12;;;;;;;10.75;9.65;;;;;;;12.05;73.66;100843.63;10358511;28;20196;-64
2023/04/19 04:40:14;;;;;;;10.65;9.65;;;;;;;12.01;73.88;100848.38;10359163;28;20053;-66
2023/04/19 04:45:17;;;;;;;10.57;9.50;;;;;;;12.02;73.68;100833.19;10365118;28;20437;-65
2023/04/19 04:50:18;;;;;;;11.15;10.15;;;;;;;11.94;74.29;100847.13;10366984;28;20088;-66
2023/04/19 04:55:20;;;;;;;11.02;9.65;;;;;;;11.89;74.05;100817.28;10371121;28;20057;-64
2023/04/19 05:00:22;;;;;;;11.32;10.23;;;;;;;11.97;74.20;100833.56;10371517;28;20053;-65
2023/04/19 05:05:24;;;;;;;11.13;10.02;;;;;;;11.91;74.03;100831.31;10370496;28;20847;-64
2023/04/19 05:10:25;;;;;;;11.20;10.10;;;;;;;11.94;74.17;100824.94;10370719;28;20053;-64
2023/04/19 05:15:27;;;;;;;10.98;9.98;;;;;;;11.98;73.97;100845.94;10346050;28;20053;-67
2023/04/19 05:20:29;;;;;;;11.20;10.10;;;;;;;12.02;73.85;100831.41;10356514;28;20088;-68
2023/04/19 05:25:30;;;;;;;11.98;10.75;;;;;;;12.01;72.85;100827.00;10366498;28;20104;-69
2023/04/19 05:30:32;;;;;;;13.32;11.77;;;;;;;12.00;72.53;100822.63;10365457;28;20045;-63
2023/04/19 05:35:33;;;;;;;11.68;10.48;;;;;;;11.99;72.13;100812.97;10350424;28;20053;-66
2023/04/19 05:40:35;;;;;;;13.60;10.57;;;;;;;12.12;71.69;100834.19;10347219;28;20083;-65
2023/04/19 05:45:36;;;;;;;10.63;9.52;;;;;;;12.19;71.24;100831.91;10344884;28;20057;-64
2023/04/19 05:50:38;;;;;;;10.30;9.15;;;;;;;12.17;71.17;100831.16;10344495;28;20060;-66
2023/04/19 05:55:40;;;;;;;10.23;9.20;;;;;;;12.15;70.88;100807.25;10349229;28;20060;-67
2023/04/19 06:00:41;;;;;;;9.98;8.98;;;;;;;12.15;70.11;100806.41;10346968;28;20049;-65
2023/04/19 06:05:43;;;;;;;9.27;8.38;;;;;;;12.19;69.76;100815.88;10344819;28;20413;-66
2023/04/19 06:10:46;;;;;;;12.23;10.32;;;;;;;12.23;69.34;100808.47;10346888;28;20683;-66
2023/04/19 06:15:58;;;;;;;8.50;7.70;;;;;;;12.35;68.54;100829.69;10343721;28;20057;-63
2023/04/19 06:21:00;;;;;;;8.73;7.93;;;;;;;12.32;68.35;100829.94;10329693;28;20725;-65
2023/04/19 06:26:01;;;;;;;7.80;7.00;;;;;;;12.38;67.56;100833.97;10339230;28;20748;-66
2023/04/19 06:31:03;;;;;;;9.35;8.00;;;;;;;12.36;67.06;100830.56;10341391;28;20053;-64
2023/04/19 06:36:05;;;;;;;7.88;7.10;;;;;;;12.38;66.43;100833.97;10341011;28;20052;-66
2023/04/19 06:41:08;;;;;;;6.82;6.22;;;;;;;12.40;66.50;100840.03;10338567;28;20066;-64
2023/04/19 06:46:10;;;;;;;8.05;6.38;;;;;;;12.31;65.84;100836.28;10340123;28;20048;-69
2023/04/19 06:51:11;;;;;;;7.72;6.50;;;;;;;12.25;65.25;100822.53;10342403;28;20059;-66
2023/04/19 06:56:13;;;;;;;11.45;6.63;;;;;;;12.36;64.89;100841.25;10338295;28;20519;-68
2023/04/19 07:01:14;;;;;;;6.53;5.93;;;;;;;12.40;64.97;100831.16;10339431;28;20108;-65
2023/04/19 07:06:16;;;;;;;7.35;6.35;;;;;;;12.23;65.04;100820.00;10340911;28;20134;-67
2023/04/19 07:11:17;;;;;;;5.78;5.22;;;;;;;12.33;64.21;100828.97;10338265;28;20361;-67
2023/04/19 07:16:21;;;;;;;6.30;5.70;;;;;;;12.41;63.80;100828.38;10340570;28;20060;-68
2023/04/19 07:21:31;;;;;;;6.50;5.18;;;;;;;12.30;62.71;100799.03;10338944;28;20287;-64
2023/04/19 07:26:33;;;;;;;5.60;4.55;;;;;;;12.50;62.33;100813.44;10336300;28;20057;-65
2023/04/19 07:31:35;;;;;;;7.60;4.68;;;;;;;12.72;62.02;100800.06;10335595;28;20606;-67
2023/04/19 07:36:37;;;;;;;5.97;4.57;;;;;;;12.74;60.89;100805.28;10332964;28;20092;-68
2023/04/19 07:41:39;;;;;;;4.40;3.97;;;;;;;12.76;60.52;100783.78;10337666;28;20450;-66
2023/04/19 07:46:43;;;;;;;6.40;3.83;;;;;;;12.96;59.70;100801.72;10345431;28;20049;-66
2023/04/19 07:51:45;;;;;;;5.15;4.20;;;;;;;12.99;58.56;100784.59;10359632;28;20331;-67
2023/04/19 07:56:46;;;;;;;5.28;3.75;;;;;;;13.10;57.49;100789.88;10341997;28;20610;-68
2023/04/19 08:01:48;;;;;;;4.28;3.88;;;;;;;13.12;57.69;100776.41;10342153;28;20045;-65
2023/04/19 08:06:51;;;;;;;6.93;6.07;;;;;;;13.23;56.95;100779.03;10340888;28;20164;-66
2023/04/19 08:11:52;;;;;;;3.75;3.45;;;;;;;13.31;56.84;100768.53;10340197;28;20057;-66
2023/04/19 08:16:54;;;;;;;4.75;4.03;;;;;;;13.53;56.73;100769.44;10349371;28;20060;-66
2023/04/19 08:22:16;;;;;;;4.15;3.53;;;;;;;13.77;55.10;100775.38;10350419;28;20050;-68
2023/04/19 08:27:19;;;;;;;3.60;3.30;;;;;;;13.83;54.78;100774.00;10346404;28;20241;-65
2023/04/19 08:32:20;;;;;;;4.28;3.50;;;;;;;14.10;54.00;100768.09;10351425;28;20389;-66
2023/04/19 08:37:22;;;;;;;5.45;3.17;;;;;;;14.29;52.65;100775.34;10348977;28;20076;-69
2023/04/19 08:42:23;;;;;;;4.28;3.88;;;;;;;14.36;53.25;100766.78;10345689;28;20064;-65
2023/04/19 08:47:39;;;;;;;6.20;3.63;;;;;;;14.70;52.57;100767.34;10349784;28;20810;-67
2023/04/19 08:52:44;;;;;;;6.00;3.60;;;;;;;14.86;51.55;100764.09;10346415;28;20327;-67
2023/04/19 08:57:57;;;;;;;4.05;3.33;;;;;;;14.75;51.91;100765.06;10344386;28;20060;-65
2023/04/19 09:02:59;;;;;;;3.40;3.10;;;;;;;15.09;50.95;100756.66;10344490;28;20061;-66
2023/04/19 09:08:23;;;;;;;4.47;3.10;;;;;;;15.24;50.11;100726.72;10350007;28;20301;-66
2023/04/19 09:13:26;;;;;;;4.47;3.20;;;;;;;15.64;50.58;100749.81;10350462;28;20056;-66
2023/04/19 09:18:28;;;;;;;4.55;3.22;;;;;;;15.87;48.68;100735.09;10355860;28;20167;-65
2023/04/19 09:23:45;;;;;;;7.95;3.97;;;;;;;16.23;47.73;100729.88;10366409;28;20052;-64
2023/04/19 09:29:03;;;;;;;3.37;2.97;;;;;;;16.61;47.82;100727.94;10350186;28;20045;-65
2023/04/19 09:34:13;;;;;;;4.43;3.17;;;;;;;16.52;45.94;100707.38;10348555;28;20041;-66
2023/04/19 09:39:28;;;;;;;3.55;3.25;;;;;;;16.74;43.28;100721.38;10353741;28;20717;-66
2023/04/19 09:44:29;;;;;;;3.13;2.40;;;;;;;17.01;42.48;100727.69;10350032;28;20110;-66
2023/04/19 09:50:05;;;;;;;3.55;3.13;;;;;;;16.87;42.16;100710.28;10355023;28;20630;-65
2023/04/19 09:55:22;;;;;;;3.53;3.10;;;;;;;17.36;41.25;100715.25;10353536;28;20045;-65
2023/04/19 10:00:29;;;;;;;3.20;2.80;;;;;;;17.40;40.62;100716.59;10357169;28;20053;-66
2023/04/19 10:05:45;;;;;;;5.70;3.38;;;;;;;17.61;38.46;100721.63;10352467;28;20709;-65
2023/04/19 10:10:53;;;;;;;4.85;3.42;;;;;;;17.99;37.91;100722.22;10357174;28;20144;-67
2023/04/19 10:15:55;;;;;;;4.10;3.08;;;;;;;18.35;36.68;100724.75;10352508;28;21510;-65
2023/04/19 10:21:13;;;;;;;4.00;3.30;;;;;;;19.16;35.13;100703.50;10359101;28;20049;-66
2023/04/19 10:26:15;;;;;;;3.30;3.00;;;;;;;22.33;29.88;100702.88;10364182;28;20061;-65
2023/04/19 10:31:22;;;;;;;3.38;2.97;;;;;;;23.63;28.38;100693.69;10354849;28;20064;-68
2023/04/19 10:36:26;;;;;;;3.60;2.85;;;;;;;23.01;28.53;100694.41;10350468;28;20056;-67
2023/04/19 10:41:57;;;;;;;2.85;2.47;;;;;;;22.20;29.57;100685.41;10360105;28;20103;-68
2023/04/19 10:46:59;;;;;;;3.67;2.55;;;;;;;22.51;27.48;100694.34;10351225;28;20463;-65
2023/04/19 10:52:00;;;;;;;3.20;2.90;;;;;;;24.66;25.22;100663.00;10348048;28;20578;-66
2023/04/19 10:57:09;;;;;;;2.05;1.67;;;;;;;27.05;20.62;100661.69;10348390;28;20053;-65
2023/04/19 11:02:20;;;;;;;3.78;2.03;;;;;;;28.95;19.38;100651.94;10345106;28;20057;-65
2023/04/19 11:07:23;;;;;;;2.95;1.80;;;;;;;29.65;18.27;100651.13;10343395;28;20057;-67
2023/04/19 11:12:25;;;;;;;2.30;2.03;;;;;;;31.20;15.33;100632.91;10344294;28;20682;-66
2023/04/19 11:17:31;;;;;;;1.55;1.45;;;;;;;31.38;15.34;100637.28;10344028;28;20234;-66
2023/04/19 11:22:44;;;;;;;2.88;1.40;;;;;;;31.60;15.04;100634.59;10345842;28;20128;-66
2023/04/19 11:27:52;;;;;;;4.22;1.17;;;;;;;32.49;13.95;100626.25;10339107;28;20072;-66
2023/04/19 11:32:57;;;;;;;2.10;0.90;;;;;;;33.76;14.53;100609.00;10342917;28;20060;-67
2023/04/19 11:37:58;;;;;;;1.58;0.90;;;;;;;34.07;13.59;100606.34;10340420;28;20057;-66
2023/04/19 11:43:02;;;;;;;2.05;1.23;;;;;;;34.43;12.79;100611.16;10339359;28;20057;-68
2023/04/19 11:48:04;;;;;;;2.25;0.90;;;;;;;33.95;12.71;100591.97;10337623;28;20553;-66
2023/04/19 11:53:21;;;;;;;2.25;0.82;;;;;;;34.37;12.34;100593.75;10340392;28;20523;-67
2023/04/19 11:58:30;;;;;;;2.65;0.50;;;;;;;33.47;11.99;100578.22;10340301;28;20052;-66
2023/04/19 12:03:53;;;;;;;2.40;0.73;;;;;;;30.51;14.19;100548.81;10341252;28;20052;-66
2023/04/19 12:08:56;;;;;;;1.52;0.60;;;;;;;27.35;16.68;100565.41;10341641;28;20064;-66
2023/04/19 12:14:07;;;;;;;1.45;0.43;;;;;;;25.98;18.08;100561.38;10343115;28;20860;-67
2023/04/19 12:19:16;;;;;;;0.90;0.57;;;;;;;25.18;17.95;100553.47;10341072;28;20123;-65
2023/04/19 12:24:18;;;;;;;2.28;0.85;;;;;;;24.76;18.02;100555.63;10336735;28;20049;-64
2023/04/19 12:29:19;;;;;;;2.63;0.50;;;;;;;24.50;18.77;100536.34;10346358;28;20049;-65
2023/04/19 12:34:20;;;;;;;;;;;;;;;23.82;19.84;100534.50;10340176;28;20068;-65
2023/04/19 12:39:22;;;;;;;3.03;0.80;;;;;;;23.45;21.33;100542.06;10340768;28;20505;-65
2023/04/19 12:44:23;;;;;;;2.78;0.98;;;;;;;23.43;20.03;100536.00;10340266;28;20084;-65
2023/04/19 12:49:25;;;;;;;1.37;0.97;;;;;;;23.20;19.68;100520.00;10339454;28;20095;-66
2023/04/19 12:54:26;;;;;;;1.27;0.80;;;;;;;22.62;20.99;100527.50;10339148;28;20147;-66
2023/04/19 12:59:28;;;;;;;1.77;0.67;;;;;;;22.52;20.72;100534.09;10345147;28;20049;-64
2023/04/19 13:04:29;;;;;;;1.60;0.57;;;;;;;22.07;20.44;100498.19;10347170;28;20155;-64
2023/04/19 13:09:31;;;;;;;2.87;0.60;;;;;;;21.77;22.40;100509.13;10339284;28;20915;-65
2023/04/19 13:14:33;;;;;;;1.63;0.60;;;;;;;21.80;21.36;100503.34;10339778;28;20060;-65
2023/04/19 13:19:34;;;;;;;1.15;0.80;;;;;;;21.92;20.93;100506.38;10346881;28;20137;-67
2023/04/19 13:24:36;;;;;;;1.45;1.02;;;;;;;21.69;20.28;100501.09;10344529;28;20139;-64
2023/04/19 13:29:37;;;;;;;1.95;0.50;;;;;;;21.09;18.07;100479.50;10339953;28;20049;-64
2023/04/19 13:34:39;;;;;;;1.83;0.70;;;;;;;20.63;18.07;100495.84;10340204;28;20408;-65
2023/04/19 13:39:41;;;;;;;3.25;0.93;;;;;;;20.36;18.05;100490.00;10338085;28;20049;-64
2023/04/19 13:44:43;;;;;;;1.40;0.80;;;;;;;20.29;19.10;100483.66;10339754;28;20583;-66
2023/04/19 13:49:50;;;;;;;1.52;0.60;;;;;;;20.03;19.36;100474.03;10344041;28;20049;-67
2023/04/19 13:54:52;;;;;;;1.42;0.80;;;;;;;19.87;20.27;100479.56;10346218;28;20528;-64
2023/04/19 13:59:53;;;;;;;1.45;0.70;;;;;;;19.55;20.99;100460.66;10346883;28;20053;-69
2023/04/19 14:04:57;;;;;;;1.67;1.20;;;;;;;19.58;20.90;100467.56;10344618;28;20057;-68
2023/04/19 14:09:59;;;;;;;2.63;1.10;;;;;;;19.19;22.49;100463.84;10344585;28;20127;-66
2023/04/19 14:15:00;;;;;;;3.15;1.30;;;;;;;18.68;21.88;100430.94;10342724;28;20052;-65
2023/04/19 14:20:03;;;;;;;2.80;1.10;;;;;;;18.86;21.77;100460.44;10344417;28;20045;-66
2023/04/19 14:25:07;;;;;;;1.52;1.33;;;;;;;18.43;22.57;100459.78;10342091;28;20708;-66
2023/04/19 14:30:09;;;;;;;1.70;0.77;;;;;;;18.54;22.52;100464.84;10337958;28;20060;-68
2023/04/19 14:35:10;;;;;;;2.65;1.10;;;;;;;18.31;22.96;100441.25;10339047;28;20096;-68
2023/04/19 14:40:12;;;;;;;1.55;0.90;;;;;;;18.01;23.12;100445.47;10335623;28;20057;-66
2023/04/19 14:45:14;;;;;;;2.08;1.05;;;;;;;17.88;23.43;100451.34;10342376;28;20057;-67
2023/04/19 14:50:15;;;;;;;2.42;1.35;;;;;;;17.91;23.49;100440.28;10361381;28;20059;-67
2023/04/19 14:55:16;;;;;;;4.00;1.65;;;;;;;17.83;24.03;100450.97;10349606;28;20057;-66
2023/04/19 15:00:18;;;;;;;1.20;0.90;;;;;;;17.83;24.24;100450.97;10339635;28;20080;-65
2023/04/19 15:05:22;;;;;;;2.45;1.30;;;;;;;17.59;24.31;100435.63;10340474;28;20057;-66
2023/04/19 15:10:24;;;;;;;2.35;1.20;;;;;;;17.58;24.03;100439.31;10354616;28;20081;-67
2023/04/19 15:15:25;;;;;;;3.40;1.15;;;;;;;17.56;24.56;100441.34;10366799;28;20045;-66
2023/04/19 15:20:27;;;;;;;4.25;1.08;;;;;;;17.60;25.04;100443.53;10335314;28;20053;-67
2023/04/19 15:25:28;;;;;;;2.65;1.40;;;;;;;17.44;24.75;100438.13;10340996;28;20150;-66
2023/04/19 15:30:30;;;;;;;3.75;1.90;;;;;;;17.35;25.48;100439.09;10340792;28;20050;-65
2023/04/19 15:35:31;;;;;;;3.90;1.52;;;;;;;16.88;25.60;100400.09;10338861;28;20127;-66
2023/04/19 15:40:37;;;;;;;1.98;1.52;;;;;;;17.06;25.82;100419.66;10355717;28;20156;-66
2023/04/19 15:45:38;;;;;;;4.93;2.00;;;;;;;16.80;26.00;100430.44;10339109;28;20211;-66
2023/04/19 15:50:39;;;;;;;5.53;1.48;;;;;;;16.75;26.23;100436.31;10343068;28;20049;-66
2023/04/19 15:55:46;;;;;;;2.20;1.42;;;;;;;16.51;26.36;100430.75;10341614;28;20045;-66
2023/04/19 16:00:48;;;;;;;3.58;1.75;;;;;;;16.37;27.20;100440.25;10346716;28;20419;-65
2023/04/19 16:05:50;;;;;;;2.45;1.80;;;;;;;16.24;26.60;100446.88;10345862;28;20053;-65
2023/04/19 16:10:51;;;;;;;2.55;1.60;;;;;;;16.11;27.67;100445.56;10341578;28;20060;-66
2023/04/19 16:15:53;;;;;;;3.25;1.67;;;;;;;16.11;27.61;100454.47;10340233;28;20450;-66
2023/04/19 16:20:54;;;;;;;3.30;1.50;;;;;;;16.07;27.40;100451.25;10342422;28;20552;-66
2023/04/19 16:25:56;;;;;;;2.05;1.60;;;;;;;16.00;27.84;100452.00;10339797;28;20061;-65
2023/04/19 16:30:57;;;;;;;2.33;1.70;;;;;;;15.85;27.49;100457.94;10339187;28;20074;-66
2023/04/19 16:35:59;;;;;;;2.63;1.85;;;;;;;15.76;27.93;100455.28;10348919;28;20057;-66
2023/04/19 16:41:03;;;;;;;3.58;1.40;;;;;;;15.59;27.66;100457.78;10346970;28;20057;-66
2023/04/19 16:46:05;;;;;;;2.55;1.58;;;;;;;15.48;27.75;100450.81;10346842;28;20065;-67
2023/04/19 16:51:07;;;;;;;4.07;2.45;;;;;;;15.49;33.40;100441.78;10326705;28;20049;-65
2023/04/19 16:56:08;;;;;;;4.53;1.60;;;;;;;15.49;27.91;100449.81;10341314;28;20060;-65
2023/04/19 17:01:10;;;;;;;2.42;1.70;;;;;;;15.47;28.13;100461.69;10338557;28;21737;-67
2023/04/19 17:06:11;;;;;;;3.35;2.35;;;;;;;15.22;28.26;100439.09;10343569;28;20045;-67
2023/04/19 17:11:12;;;;;;;3.20;2.47;;;;;;;15.23;28.57;100456.88;10370101;28;20802;-66
2023/04/19 17:16:14;;;;;;;3.70;1.88;;;;;;;15.21;29.09;100454.34;10353803;28;20064;-66
2023/04/19 17:21:15;;;;;;;4.13;2.13;;;;;;;15.10;28.75;100460.75;10349714;28;20568;-67
2023/04/19 17:26:17;;;;;;;2.50;1.83;;;;;;;14.81;29.19;100450.97;10342826;28;20187;-67
2023/04/19 17:31:18;;;;;;;3.67;2.30;;;;;;;14.64;28.97;100441.03;10344072;28;20087;-66
2023/04/19 17:36:20;;;;;;;2.53;2.10;;;;;;;14.59;29.14;100465.53;10344179;28;20057;-66
2023/04/19 17:41:21;;;;;;;2.55;1.52;;;;;;;14.53;29.56;100458.06;10345407;28;20057;-66
2023/04/19 17:46:23;;;;;;;2.40;2.03;;;;;;;14.44;29.31;100456.25;10348181;28;20061;-66
2023/04/19 17:51:24;;;;;;;2.40;1.58;;;;;;;14.24;29.47;100442.06;10346064;28;20060;-66
2023/04/19 17:56:25;;;;;;;3.38;1.80;;;;;;;14.25;29.49;100457.16;10340000;28;20663;-65
2023/04/19 18:01:28;;;;;;;2.80;1.67;;;;;;;14.10;29.65;100444.19;10345378;28;20069;-65
2023/04/19 18:06:30;;;;;;;2.78;1.65;;;;;;;14.11;29.65;100467.28;10346824;28;20909;-67
2023/04/19 18:11:32;;;;;;;2.45;2.00;;;;;;;14.00;29.85;100448.69;10344261;28;20045;-68
2023/04/19 18:16:33;;;;;;;2.45;1.80;;;;;;;14.01;29.95;100461.09;10347170;28;20057;-67
2023/04/19 18:21:35;;;;;;;3.00;1.80;;;;;;;13.90;29.44;100459.41;10345204;28;20532;-68
2023/04/19 18:26:39;;;;;;;2.33;1.33;;;;;;;13.86;30.08;100468.69;10345761;28;20132;-67
2023/04/19 18:31:41;;;;;;;1.67;1.50;;;;;;;13.73;30.14;100471.63;10343641;28;20448;-67
2023/04/19 18:36:42;;;;;;;3.47;2.13;;;;;;;13.55;30.93;100457.25;10342585;28;20049;-69
2023/04/19 18:41:44;;;;;;;3.50;1.60;;;;;;;13.53;31.28;100467.25;10346421;28;20137;-70
2023/04/19 18:46:45;;;;;;;4.05;2.17;;;;;;;13.40;31.39;100462.13;10346079;28;20060;-68
2023/04/19 18:51:47;;;;;;;2.65;1.85;;;;;;;13.39;32.03;100469.31;10340534;28;20684;-65
2023/04/19 18:56:48;;;;;;;3.15;1.67;;;;;;;13.42;32.46;100468.19;10339732;28;20076;-65
2023/04/19 19:02:10;;;;;;;2.75;2.03;;;;;;;13.33;36.12;100477.84;10340548;28;20751;-63
2023/04/19 19:07:11;;;;;;;3.35;1.67;;;;;;;13.14;33.94;100488.47;10340147;28;20056;-64
2023/04/19 19:12:33;;;;;;;3.72;2.10;;;;;;;12.95;34.23;100487.38;10342668;28;20144;-63
2023/04/19 19:17:34;;;;;;;3.58;2.05;;;;;;;12.76;34.46;100468.59;10345314;28;20050;-69
2023/04/19 19:22:36;;;;;;;2.80;2.17;;;;;;;12.69;34.04;100482.47;10342693;28;20056;-67
2023/04/19 19:27:37;;;;;;;5.07;2.30;;;;;;;12.71;33.88;100493.88;10342928;28;20139;-65
2023/04/19 19:32:39;;;;;;;2.90;1.75;;;;;;;12.62;34.30;100500.00;10340146;28;20064;-67
2023/04/19 19:37:40;;;;;;;5.88;2.78;;;;;;;12.43;33.97;100473.16;10336969;28;20224;-66
2023/04/19 19:42:42;;;;;;;3.00;2.10;;;;;;;12.34;34.32;100478.31;10342242;28;20068;-67
2023/04/19 19:47:43;;;;;;;4.93;2.80;;;;;;;12.37;34.71;100491.41;10339666;28;20651;-67
2023/04/19 19:52:48;;;;;;;4.60;2.15;;;;;;;12.27;34.67;100487.81;10339745;28;20057;-68
2023/04/19 19:57:50;;;;;;;5.25;2.80;;;;;;;12.25;34.96;100497.78;10341109;28;20061;-66
2023/04/19 20:02:54;;;;;;;5.70;3.60;;;;;;;12.14;35.02;100482.66;10339513;28;20050;-69
2023/04/19 20:08:08;;;;;;;3.95;2.22;;;;;;;12.16;35.13;100493.19;10345257;28;20160;-68
2023/04/19 20:13:11;;;;;;;2.47;1.63;;;;;;;12.12;35.14;100491.78;10350378;28;20046;-68
2023/04/19 20:18:14;;;;;;;3.55;2.20;;;;;;;12.12;35.24;100503.28;10350029;28;20053;-66
2023/04/19 20:23:17;;;;;;;4.20;2.70;;;;;;;11.93;35.24;100476.44;10343483;28;21178;-66
2023/04/19 20:28:19;;;;;;;4.57;2.28;;;;;;;11.91;35.33;100475.69;10348246;28;20046;-67
2023/04/19 20:33:21;;;;;;;3.88;2.17;;;;;;;11.97;35.50;100491.22;10348664;28;20060;-67
2023/04/19 20:38:23;;;;;;;4.72;2.60;;;;;;;11.90;35.66;100490.84;10349991;28;20049;-67
2023/04/19 20:43:24;;;;;;;3.60;2.83;;;;;;;11.82;35.99;100479.97;10347275;28;20156;-66
2023/04/19 20:48:26;;;;;;;5.97;2.45;;;;;;;11.79;35.91;100481.06;10348441;28;20115;-67
2023/04/19 20:53:27;;;;;;;2.50;2.30;;;;;;;11.75;37.99;100476.94;10347077;28;20592;-65
2023/04/19 20:58:30;;;;;;;2.95;2.25;;;;;;;11.81;37.71;100488.94;10370265;28;20049;-67
2023/04/19 21:03:32;;;;;;;3.53;2.10;;;;;;;11.60;36.45;100468.38;10369268;28;20793;-66
2023/04/19 21:08:34;;;;;;;5.03;2.90;;;;;;;11.66;36.84;100483.91;10370324;28;20057;-67
2023/04/19 21:13:36;;;;;;;3.65;2.67;;;;;;;11.63;36.88;100477.94;10364445;28;20469;-66
2023/04/19 21:18:37;;;;;;;5.63;3.03;;;;;;;11.57;37.02;100475.78;10369799;28;20555;-65
2023/04/19 21:23:39;;;;;;;3.10;2.78;;;;;;;11.49;37.63;100468.41;10367590;28;20045;-67
2023/04/19 21:28:40;;;;;;;3.40;2.75;;;;;;;11.48;37.43;100461.38;10369080;28;20530;-66
2023/04/19 21:33:41;;;;;;;7.32;3.10;;;;;;;11.34;36.80;100443.00;10369522;28;20049;-67
2023/04/19 21:38:43;;;;;;;3.20;2.08;;;;;;;11.40;37.30;100453.16;10370356;28;20049;-67
2023/04/19 21:43:44;;;;;;;4.03;2.90;;;;;;;11.37;37.80;100464.06;10369973;28;20753;-66
2023/04/19 21:48:45;;;;;;;3.72;2.58;;;;;;;11.32;37.74;100448.47;10374397;28;20085;-66
2023/04/19 21:53:47;;;;;;;5.43;3.22;;;;;;;11.23;38.21;100436.72;10383698;28;20088;-65
2023/04/19 21:58:48;;;;;;;4.95;2.97;;;;;;;11.08;38.17;100448.56;10374648;28;20068;-66
2023/04/19 22:03:49;;;;;;;2.75;2.53;;;;;;;11.06;38.39;100437.22;10366668;28;20056;-66
2023/04/19 22:08:52;;;;;;;2.53;2.33;;;;;;;11.10;38.35;100433.34;10368351;28;20696;-65
2023/04/19 22:13:54;;;;;;;4.35;2.70;;;;;;;10.99;39.53;100428.88;10366369;28;20782;-66
2023/04/19 22:18:56;;;;;;;4.72;2.80;;;;;;;10.97;38.51;100414.81;10364091;28;20056;-66
2023/04/19 22:23:58;;;;;;;3.25;2.28;;;;;;;10.92;38.53;100417.84;10361440;28;20142;-67
2023/04/19 22:28:59;;;;;;;5.03;2.30;;;;;;;10.89;38.39;100415.41;10362339;28;20076;-65
2023/04/19 22:34:00;;;;;;;3.33;2.88;;;;;;;10.87;38.64;100406.72;10366693;28;20049;-65
2023/04/19 22:39:03;;;;;;;4.00;3.00;;;;;;;10.83;38.78;100407.91;10364717;28;20494;-65
2023/04/19 22:44:04;;;;;;;4.25;2.50;;;;;;;10.68;39.14;100386.03;10361961;28;20072;-65
2023/04/19 22:49:07;;;;;;;3.95;2.72;;;;;;;10.56;39.21;100387.81;10363828;28;20567;-66
2023/04/19 22:54:08;;;;;;;3.78;2.47;;;;;;;10.63;39.31;100388.22;10363734;28;20146;-66
2023/04/19 22:59:10;;;;;;;6.50;3.17;;;;;;;10.48;39.43;100362.78;10363687;28;20390;-65
2023/04/19 23:04:13;;;;;;;4.03;3.20;;;;;;;10.55;39.64;100378.16;10365016;28;20652;-65
2023/04/19 23:09:16;;;;;;;3.33;3.03;;;;;;;10.36;40.07;100348.63;10364474;28;20607;-65
2023/04/19 23:14:18;;;;;;;3.78;3.03;;;;;;;10.28;40.09;100354.50;10361442;28;20116;-66